sensor_id;sensor_type;location;lat;lon;timestamp;pressure;altitude;pressure_sealevel;temperature;humidity
38852;BME280;24605;50.092;9.182;2022-07-01T00:01:01;97808.41;;;16.86;84.60
38852;BME280;24605;50.092;9.182;2022-07-01T00:03:27;97810.81;;;16.88;84.75
38852;BME280;24605;50.092;9.182;2022-07-01T00:05:54;97822.41;;;17.00;84.16
38852;BME280;24605;50.092;9.182;2022-07-01T00:08:22;97826.06;;;16.99;83.54
38852;BME280;24605;50.092;9.182;2022-07-01T00:10:48;97820.31;;;17.02;83.47
38852;BME280;24605;50.092;9.182;2022-07-01T00:13:15;97825.28;;;16.92;83.88
38852;BME280;24605;50.092;9.182;2022-07-01T00:15:41;97825.88;;;16.94;84.28
38852;BME280;24605;50.092;9.182;2022-07-01T00:18:08;97829.75;;;16.98;84.06
38852;BME280;24605;50.092;9.182;2022-07-01T00:20:34;97831.19;;;16.94;84.19
38852;BME280;24605;50.092;9.182;2022-07-01T00:23:01;97840.09;;;17.00;84.20
38852;BME280;24605;50.092;9.182;2022-07-01T00:25:28;97839.25;;;17.06;83.43
38852;BME280;24605;50.092;9.182;2022-07-01T00:27:55;97839.22;;;17.13;83.27
38852;BME280;24605;50.092;9.182;2022-07-01T00:30:21;97843.00;;;17.23;82.34
38852;BME280;24605;50.092;9.182;2022-07-01T00:32:48;97846.38;;;17.12;83.32
38852;BME280;24605;50.092;9.182;2022-07-01T00:35:18;97850.94;;;16.98;83.23
38852;BME280;24605;50.092;9.182;2022-07-01T00:37:44;97851.19;;;16.76;84.63
38852;BME280;24605;50.092;9.182;2022-07-01T00:40:11;97851.25;;;16.70;84.65
38852;BME280;24605;50.092;9.182;2022-07-01T00:42:40;97854.53;;;16.65;84.84
38852;BME280;24605;50.092;9.182;2022-07-01T00:45:08;97858.00;;;16.59;85.17
38852;BME280;24605;50.092;9.182;2022-07-01T00:47:35;97855.94;;;16.68;85.01
38852;BME280;24605;50.092;9.182;2022-07-01T00:50:03;97867.47;;;16.80;84.37
38852;BME280;24605;50.092;9.182;2022-07-01T00:52:33;97857.03;;;16.47;85.88
38852;BME280;24605;50.092;9.182;2022-07-01T00:55:02;97833.88;;;16.35;86.29
38852;BME280;24605;50.092;9.182;2022-07-01T00:57:30;97848.56;;;16.24;87.27
38852;BME280;24605;50.092;9.182;2022-07-01T00:59:58;97848.97;;;16.14;88.34
38852;BME280;24605;50.092;9.182;2022-07-01T01:02:25;97852.47;;;16.08;88.58
38852;BME280;24605;50.092;9.182;2022-07-01T01:04:51;97853.06;;;16.10;89.09
38852;BME280;24605;50.092;9.182;2022-07-01T01:07:18;97851.03;;;16.06;89.24
38852;BME280;24605;50.092;9.182;2022-07-01T01:09:44;97858.13;;;16.12;89.32
38852;BME280;24605;50.092;9.182;2022-07-01T01:12:12;97860.00;;;15.98;90.37
38852;BME280;24605;50.092;9.182;2022-07-01T01:14:45;97873.00;;;15.79;92.83
38852;BME280;24605;50.092;9.182;2022-07-01T01:17:15;97881.16;;;15.64;94.20
38852;BME280;24605;50.092;9.182;2022-07-01T01:19:43;97872.63;;;15.62;96.51
38852;BME280;24605;50.092;9.182;2022-07-01T01:22:11;97877.28;;;15.60;96.41
38852;BME280;24605;50.092;9.182;2022-07-01T01:24:41;97882.97;;;15.64;99.07
38852;BME280;24605;50.092;9.182;2022-07-01T01:27:07;97869.94;;;15.49;99.29
38852;BME280;24605;50.092;9.182;2022-07-01T01:29:35;97839.66;;;15.25;100.00
38852;BME280;24605;50.092;9.182;2022-07-01T01:32:03;97855.50;;;15.31;100.00
38852;BME280;24605;50.092;9.182;2022-07-01T01:34:30;97821.75;;;15.07;100.00
38852;BME280;24605;50.092;9.182;2022-07-01T01:36:57;97879.50;;;15.30;100.00
38852;BME280;24605;50.092;9.182;2022-07-01T01:39:25;97881.72;;;15.26;100.00
38852;BME280;24605;50.092;9.182;2022-07-01T01:41:52;97877.84;;;15.15;100.00
38852;BME280;24605;50.092;9.182;2022-07-01T01:44:18;97874.38;;;15.15;100.00
38852;BME280;24605;50.092;9.182;2022-07-01T01:46:45;97885.34;;;15.05;100.00
38852;BME280;24605;50.092;9.182;2022-07-01T01:49:11;97887.13;;;14.91;100.00
38852;BME280;24605;50.092;9.182;2022-07-01T01:51:38;97890.72;;;14.77;100.00
38852;BME280;24605;50.092;9.182;2022-07-01T01:54:05;97870.16;;;14.65;100.00
38852;BME280;24605;50.092;9.182;2022-07-01T01:56:33;97892.16;;;14.79;100.00
38852;BME280;24605;50.092;9.182;2022-07-01T01:59:00;97886.47;;;14.76;100.00
38852;BME280;24605;50.092;9.182;2022-07-01T02:01:27;97870.13;;;14.58;100.00
38852;BME280;24605;50.092;9.182;2022-07-01T02:03:53;97861.13;;;14.46;100.00
38852;BME280;24605;50.092;9.182;2022-07-01T02:06:21;97872.25;;;14.35;100.00
38852;BME280;24605;50.092;9.182;2022-07-01T02:08:47;97875.22;;;14.25;100.00
38852;BME280;24605;50.092;9.182;2022-07-01T02:11:14;97870.31;;;14.15;100.00
38852;BME280;24605;50.092;9.182;2022-07-01T02:13:42;97877.16;;;14.09;100.00
38852;BME280;24605;50.092;9.182;2022-07-01T02:16:10;97876.94;;;14.04;100.00
38852;BME280;24605;50.092;9.182;2022-07-01T02:18:37;97896.44;;;14.10;100.00
38852;BME280;24605;50.092;9.182;2022-07-01T02:21:03;97902.16;;;14.14;100.00
38852;BME280;24605;50.092;9.182;2022-07-01T02:23:29;97907.06;;;14.23;100.00
38852;BME280;24605;50.092;9.182;2022-07-01T02:25:56;97903.63;;;14.23;100.00
38852;BME280;24605;50.092;9.182;2022-07-01T02:28:22;97898.16;;;14.24;100.00
38852;BME280;24605;50.092;9.182;2022-07-01T02:30:50;97889.81;;;14.21;100.00
38852;BME280;24605;50.092;9.182;2022-07-01T02:33:17;97882.22;;;14.11;100.00
38852;BME280;24605;50.092;9.182;2022-07-01T02:35:43;97857.03;;;14.02;100.00
38852;BME280;24605;50.092;9.182;2022-07-01T02:38:10;97866.72;;;13.94;100.00
38852;BME280;24605;50.092;9.182;2022-07-01T02:40:36;97869.94;;;13.90;100.00
38852;BME280;24605;50.092;9.182;2022-07-01T02:43:05;97854.47;;;13.80;100.00
38852;BME280;24605;50.092;9.182;2022-07-01T02:45:32;97858.78;;;13.88;100.00
38852;BME280;24605;50.092;9.182;2022-07-01T02:47:59;97855.91;;;13.83;100.00
38852;BME280;24605;50.092;9.182;2022-07-01T02:50:27;97841.00;;;13.68;100.00
38852;BME280;24605;50.092;9.182;2022-07-01T02:52:54;97840.16;;;13.61;100.00
38852;BME280;24605;50.092;9.182;2022-07-01T02:55:20;97857.47;;;13.77;100.00
38852;BME280;24605;50.092;9.182;2022-07-01T02:57:47;97854.84;;;13.77;100.00
38852;BME280;24605;50.092;9.182;2022-07-01T03:00:15;97849.53;;;13.70;100.00
38852;BME280;24605;50.092;9.182;2022-07-01T03:02:41;97841.00;;;13.68;100.00
38852;BME280;24605;50.092;9.182;2022-07-01T03:05:09;97848.13;;;13.74;100.00
38852;BME280;24605;50.092;9.182;2022-07-01T03:07:36;97838.03;;;13.78;100.00
38852;BME280;24605;50.092;9.182;2022-07-01T03:10:03;97832.13;;;13.76;100.00
38852;BME280;24605;50.092;9.182;2022-07-01T03:12:30;97827.84;;;13.68;100.00
38852;BME280;24605;50.092;9.182;2022-07-01T03:15:01;97832.41;;;13.59;100.00
38852;BME280;24605;50.092;9.182;2022-07-01T03:17:29;97833.69;;;13.63;100.00
38852;BME280;24605;50.092;9.182;2022-07-01T03:19:56;97831.91;;;13.71;100.00
38852;BME280;24605;50.092;9.182;2022-07-01T03:22:25;97831.84;;;13.64;100.00
38852;BME280;24605;50.092;9.182;2022-07-01T03:24:52;97827.91;;;13.53;100.00
38852;BME280;24605;50.092;9.182;2022-07-01T03:27:20;97830.94;;;13.50;100.00
38852;BME280;24605;50.092;9.182;2022-07-01T03:29:46;97837.81;;;13.51;100.00
38852;BME280;24605;50.092;9.182;2022-07-01T03:32:13;97837.09;;;13.57;100.00
38852;BME280;24605;50.092;9.182;2022-07-01T03:34:43;97836.19;;;13.50;100.00
38852;BME280;24605;50.092;9.182;2022-07-01T03:37:11;97837.16;;;13.42;100.00
38852;BME280;24605;50.092;9.182;2022-07-01T03:39:39;97839.81;;;13.49;100.00
38852;BME280;24605;50.092;9.182;2022-07-01T03:42:07;97841.47;;;13.50;100.00
38852;BME280;24605;50.092;9.182;2022-07-01T03:44:35;97852.13;;;13.63;100.00
38852;BME280;24605;50.092;9.182;2022-07-01T03:47:02;97844.28;;;13.48;100.00
38852;BME280;24605;50.092;9.182;2022-07-01T03:49:30;97847.78;;;13.34;100.00
38852;BME280;24605;50.092;9.182;2022-07-01T03:51:57;97854.41;;;13.45;100.00
38852;BME280;24605;50.092;9.182;2022-07-01T03:54:24;97863.22;;;13.59;100.00
38852;BME280;24605;50.092;9.182;2022-07-01T03:56:57;97873.13;;;13.57;100.00
38852;BME280;24605;50.092;9.182;2022-07-01T03:59:24;97874.47;;;13.46;100.00
38852;BME280;24605;50.092;9.182;2022-07-01T04:01:51;97868.00;;;13.48;100.00
38852;BME280;24605;50.092;9.182;2022-07-01T04:04:17;97871.78;;;13.68;100.00
38852;BME280;24605;50.092;9.182;2022-07-01T04:06:44;97880.31;;;13.70;100.00
38852;BME280;24605;50.092;9.182;2022-07-01T04:09:12;97896.69;;;13.87;100.00
38852;BME280;24605;50.092;9.182;2022-07-01T04:11:41;97902.47;;;13.75;100.00
38852;BME280;24605;50.092;9.182;2022-07-01T04:14:10;97922.13;;;13.79;100.00
38852;BME280;24605;50.092;9.182;2022-07-01T04:16:39;97928.56;;;13.70;100.00
38852;BME280;24605;50.092;9.182;2022-07-01T04:19:07;97931.00;;;13.72;100.00
38852;BME280;24605;50.092;9.182;2022-07-01T04:21:34;97920.03;;;13.68;100.00
38852;BME280;24605;50.092;9.182;2022-07-01T04:24:18;97827.50;;;13.06;100.00
38852;BME280;24605;50.092;9.182;2022-07-01T04:26:45;97916.00;;;13.72;100.00
38852;BME280;24605;50.092;9.182;2022-07-01T04:29:14;97929.09;;;13.87;100.00
38852;BME280;24605;50.092;9.182;2022-07-01T04:31:41;97933.00;;;13.91;100.00
38852;BME280;24605;50.092;9.182;2022-07-01T04:34:08;97926.84;;;13.84;100.00
38852;BME280;24605;50.092;9.182;2022-07-01T04:36:36;97947.25;;;13.75;100.00
38852;BME280;24605;50.092;9.182;2022-07-01T04:39:04;97947.25;;;13.75;100.00
38852;BME280;24605;50.092;9.182;2022-07-01T04:41:30;97949.63;;;13.48;100.00
38852;BME280;24605;50.092;9.182;2022-07-01T04:44:17;97956.09;;;13.68;100.00
38852;BME280;24605;50.092;9.182;2022-07-01T04:46:44;97943.19;;;13.73;100.00
38852;BME280;24605;50.092;9.182;2022-07-01T04:49:10;97954.91;;;13.92;100.00
38852;BME280;24605;50.092;9.182;2022-07-01T04:51:37;97946.06;;;13.78;100.00
38852;BME280;24605;50.092;9.182;2022-07-01T04:54:04;97941.41;;;13.80;100.00
38852;BME280;24605;50.092;9.182;2022-07-01T04:56:33;97956.50;;;13.65;100.00
38852;BME280;24605;50.092;9.182;2022-07-01T04:59:00;97961.38;;;13.68;100.00
38852;BME280;24605;50.092;9.182;2022-07-01T05:01:28;97972.59;;;13.76;100.00
38852;BME280;24605;50.092;9.182;2022-07-01T05:03:55;97992.72;;;13.84;100.00
38852;BME280;24605;50.092;9.182;2022-07-01T05:06:22;98009.56;;;13.83;100.00
38852;BME280;24605;50.092;9.182;2022-07-01T05:08:48;98016.13;;;13.72;100.00
38852;BME280;24605;50.092;9.182;2022-07-01T05:11:15;98012.88;;;13.70;100.00
38852;BME280;24605;50.092;9.182;2022-07-01T05:13:42;98012.06;;;13.70;100.00
38852;BME280;24605;50.092;9.182;2022-07-01T05:16:08;98004.06;;;13.63;100.00
38852;BME280;24605;50.092;9.182;2022-07-01T05:18:36;97980.63;;;13.68;100.00
38852;BME280;24605;50.092;9.182;2022-07-01T05:21:21;97999.25;;;13.88;100.00
38852;BME280;24605;50.092;9.182;2022-07-01T05:24:06;98007.28;;;13.80;100.00
38852;BME280;24605;50.092;9.182;2022-07-01T05:26:33;98006.53;;;13.86;100.00
38852;BME280;24605;50.092;9.182;2022-07-01T05:29:00;98004.59;;;13.52;100.00
38852;BME280;24605;50.092;9.182;2022-07-01T05:31:27;98014.69;;;13.70;100.00
38852;BME280;24605;50.092;9.182;2022-07-01T05:33:54;98018.72;;;13.66;100.00
38852;BME280;24605;50.092;9.182;2022-07-01T05:36:21;98021.41;;;13.72;100.00
38852;BME280;24605;50.092;9.182;2022-07-01T05:38:48;98022.53;;;13.85;100.00
38852;BME280;24605;50.092;9.182;2022-07-01T05:41:14;98027.09;;;13.76;100.00
38852;BME280;24605;50.092;9.182;2022-07-01T05:43:42;98024.75;;;13.81;100.00
38852;BME280;24605;50.092;9.182;2022-07-01T05:46:09;98030.78;;;13.75;100.00
38852;BME280;24605;50.092;9.182;2022-07-01T05:48:35;98037.28;;;13.79;100.00
38852;BME280;24605;50.092;9.182;2022-07-01T05:51:03;98029.88;;;13.89;100.00
38852;BME280;24605;50.092;9.182;2022-07-01T05:53:30;98028.25;;;13.88;100.00
38852;BME280;24605;50.092;9.182;2022-07-01T05:55:56;98032.09;;;13.86;100.00
38852;BME280;24605;50.092;9.182;2022-07-01T05:58:23;98033.19;;;13.98;100.00
38852;BME280;24605;50.092;9.182;2022-07-01T06:00:49;98044.50;;;14.14;100.00
38852;BME280;24605;50.092;9.182;2022-07-01T06:03:16;98039.72;;;14.24;100.00
38852;BME280;24605;50.092;9.182;2022-07-01T06:05:43;98038.66;;;13.97;100.00
38852;BME280;24605;50.092;9.182;2022-07-01T06:08:11;98047.44;;;14.04;100.00
38852;BME280;24605;50.092;9.182;2022-07-01T06:10:38;98047.31;;;14.12;100.00
38852;BME280;24605;50.092;9.182;2022-07-01T06:13:04;98034.91;;;14.28;100.00
38852;BME280;24605;50.092;9.182;2022-07-01T06:15:31;98043.59;;;14.28;100.00
38852;BME280;24605;50.092;9.182;2022-07-01T06:17:58;98044.94;;;14.17;100.00
38852;BME280;24605;50.092;9.182;2022-07-01T06:20:25;98037.09;;;14.02;100.00
38852;BME280;24605;50.092;9.182;2022-07-01T06:22:51;98039.69;;;13.74;100.00
38852;BME280;24605;50.092;9.182;2022-07-01T06:25:19;98047.97;;;13.92;100.00
38852;BME280;24605;50.092;9.182;2022-07-01T06:27:46;98054.13;;;14.00;100.00
38852;BME280;24605;50.092;9.182;2022-07-01T06:30:13;98031.56;;;13.75;100.00
38852;BME280;24605;50.092;9.182;2022-07-01T06:32:40;98032.38;;;13.76;100.00
38852;BME280;24605;50.092;9.182;2022-07-01T06:35:07;98034.63;;;13.57;100.00
38852;BME280;24605;50.092;9.182;2022-07-01T06:37:34;98035.00;;;13.76;100.00
38852;BME280;24605;50.092;9.182;2022-07-01T06:40:02;98036.53;;;13.85;100.00
38852;BME280;24605;50.092;9.182;2022-07-01T06:42:30;98041.78;;;13.85;100.00
38852;BME280;24605;50.092;9.182;2022-07-01T06:44:56;98042.19;;;13.82;100.00
38852;BME280;24605;50.092;9.182;2022-07-01T06:47:23;98042.19;;;13.82;100.00
38852;BME280;24605;50.092;9.182;2022-07-01T06:49:49;98048.56;;;13.94;100.00
38852;BME280;24605;50.092;9.182;2022-07-01T06:52:16;98053.44;;;14.13;100.00
38852;BME280;24605;50.092;9.182;2022-07-01T06:54:43;98045.44;;;14.06;100.00
38852;BME280;24605;50.092;9.182;2022-07-01T06:57:09;98043.44;;;14.08;100.00
38852;BME280;24605;50.092;9.182;2022-07-01T06:59:37;98045.75;;;14.18;100.00
38852;BME280;24605;50.092;9.182;2022-07-01T07:02:04;98055.16;;;14.27;100.00
38852;BME280;24605;50.092;9.182;2022-07-01T07:04:32;98043.75;;;14.20;100.00
38852;BME280;24605;50.092;9.182;2022-07-01T07:06:59;98049.69;;;14.29;100.00
38852;BME280;24605;50.092;9.182;2022-07-01T07:09:26;98052.78;;;14.32;100.00
38852;BME280;24605;50.092;9.182;2022-07-01T07:11:52;98058.16;;;14.46;100.00
38852;BME280;24605;50.092;9.182;2022-07-01T07:14:19;98060.28;;;14.85;100.00
38852;BME280;24605;50.092;9.182;2022-07-01T07:16:46;98062.19;;;14.98;100.00
38852;BME280;24605;50.092;9.182;2022-07-01T07:19:13;98059.91;;;15.24;100.00
38852;BME280;24605;50.092;9.182;2022-07-01T07:21:39;98064.81;;;15.33;100.00
38852;BME280;24605;50.092;9.182;2022-07-01T07:24:06;98076.75;;;15.23;100.00
38852;BME280;24605;50.092;9.182;2022-07-01T07:26:33;98077.13;;;15.19;100.00
38852;BME280;24605;50.092;9.182;2022-07-01T07:28:59;98080.91;;;15.03;100.00
38852;BME280;24605;50.092;9.182;2022-07-01T07:31:26;98083.03;;;14.86;100.00
38852;BME280;24605;50.092;9.182;2022-07-01T07:33:54;98078.75;;;14.85;100.00
38852;BME280;24605;50.092;9.182;2022-07-01T07:36:20;98085.31;;;14.90;100.00
38852;BME280;24605;50.092;9.182;2022-07-01T07:38:47;98087.47;;;14.86;100.00
38852;BME280;24605;50.092;9.182;2022-07-01T07:41:15;98100.59;;;14.72;100.00
38852;BME280;24605;50.092;9.182;2022-07-01T07:43:41;98101.88;;;14.83;100.00
38852;BME280;24605;50.092;9.182;2022-07-01T07:46:08;98120.03;;;14.93;100.00
38852;BME280;24605;50.092;9.182;2022-07-01T07:48:34;98117.25;;;14.73;100.00
38852;BME280;24605;50.092;9.182;2022-07-01T07:51:02;98114.56;;;14.95;100.00
38852;BME280;24605;50.092;9.182;2022-07-01T07:53:29;98121.19;;;14.84;100.00
38852;BME280;24605;50.092;9.182;2022-07-01T07:55:55;98125.56;;;14.70;100.00
38852;BME280;24605;50.092;9.182;2022-07-01T07:58:22;98114.47;;;14.81;100.00
38852;BME280;24605;50.092;9.182;2022-07-01T08:00:48;98121.22;;;14.91;100.00
38852;BME280;24605;50.092;9.182;2022-07-01T08:03:15;98114.94;;;14.92;100.00
38852;BME280;24605;50.092;9.182;2022-07-01T08:05:41;98118.88;;;14.74;100.00
38852;BME280;24605;50.092;9.182;2022-07-01T08:08:09;98118.91;;;14.59;100.00
38852;BME280;24605;50.092;9.182;2022-07-01T08:10:36;98125.03;;;14.38;100.00
38852;BME280;24605;50.092;9.182;2022-07-01T08:13:02;98121.00;;;14.20;100.00
38852;BME280;24605;50.092;9.182;2022-07-01T08:15:31;98127.72;;;14.01;100.00
38852;BME280;24605;50.092;9.182;2022-07-01T08:17:58;98126.84;;;13.94;100.00
38852;BME280;24605;50.092;9.182;2022-07-01T08:20:25;98116.13;;;13.81;100.00
38852;BME280;24605;50.092;9.182;2022-07-01T08:22:51;98133.66;;;13.88;100.00
38852;BME280;24605;50.092;9.182;2022-07-01T08:25:19;98139.13;;;13.87;100.00
38852;BME280;24605;50.092;9.182;2022-07-01T08:27:46;98133.03;;;13.86;100.00
38852;BME280;24605;50.092;9.182;2022-07-01T08:30:12;98135.41;;;13.81;100.00
38852;BME280;24605;50.092;9.182;2022-07-01T08:32:39;98126.56;;;13.89;100.00
38852;BME280;24605;50.092;9.182;2022-07-01T08:35:06;98127.03;;;13.92;100.00
38852;BME280;24605;50.092;9.182;2022-07-01T08:37:33;98134.41;;;13.82;100.00
38852;BME280;24605;50.092;9.182;2022-07-01T08:39:59;98127.53;;;13.66;100.00
38852;BME280;24605;50.092;9.182;2022-07-01T08:42:27;98125.44;;;13.61;100.00
38852;BME280;24605;50.092;9.182;2022-07-01T08:44:54;98128.88;;;13.62;100.00
38852;BME280;24605;50.092;9.182;2022-07-01T08:47:20;98121.16;;;13.75;100.00
38852;BME280;24605;50.092;9.182;2022-07-01T08:49:46;98119.72;;;13.73;100.00
38852;BME280;24605;50.092;9.182;2022-07-01T08:52:13;98127.75;;;13.86;100.00
38852;BME280;24605;50.092;9.182;2022-07-01T08:54:40;98121.94;;;13.91;100.00
38852;BME280;24605;50.092;9.182;2022-07-01T08:57:07;98114.91;;;13.98;100.00
38852;BME280;24605;50.092;9.182;2022-07-01T08:59:35;98111.72;;;14.03;100.00
38852;BME280;24605;50.092;9.182;2022-07-01T09:02:03;98128.13;;;14.20;100.00
38852;BME280;24605;50.092;9.182;2022-07-01T09:04:30;98139.78;;;14.10;100.00
38852;BME280;24605;50.092;9.182;2022-07-01T09:07:03;98149.91;;;14.07;100.00
38852;BME280;24605;50.092;9.182;2022-07-01T09:09:33;98144.97;;;14.04;100.00
38852;BME280;24605;50.092;9.182;2022-07-01T09:12:00;98156.25;;;14.34;100.00
38852;BME280;24605;50.092;9.182;2022-07-01T09:14:27;98166.06;;;14.40;100.00
38852;BME280;24605;50.092;9.182;2022-07-01T09:16:57;98171.09;;;14.57;100.00
38852;BME280;24605;50.092;9.182;2022-07-01T09:19:25;98171.63;;;14.67;100.00
38852;BME280;24605;50.092;9.182;2022-07-01T09:21:54;98176.06;;;14.67;100.00
38852;BME280;24605;50.092;9.182;2022-07-01T09:24:24;98182.56;;;14.93;100.00
38852;BME280;24605;50.092;9.182;2022-07-01T09:26:52;98178.91;;;15.22;100.00
38852;BME280;24605;50.092;9.182;2022-07-01T09:29:18;98192.13;;;15.50;100.00
38852;BME280;24605;50.092;9.182;2022-07-01T09:31:48;98196.78;;;15.48;100.00
38852;BME280;24605;50.092;9.182;2022-07-01T09:34:16;98193.09;;;15.43;100.00
38852;BME280;24605;50.092;9.182;2022-07-01T09:36:51;98211.84;;;15.90;100.00
38852;BME280;24605;50.092;9.182;2022-07-01T09:39:18;98207.44;;;16.04;100.00
38852;BME280;24605;50.092;9.182;2022-07-01T09:41:44;98206.84;;;16.08;95.36
38852;BME280;24605;50.092;9.182;2022-07-01T09:44:11;98215.81;;;16.14;99.12
38852;BME280;24605;50.092;9.182;2022-07-01T09:46:37;98214.28;;;15.85;99.07
38852;BME280;24605;50.092;9.182;2022-07-01T09:49:04;98207.78;;;15.52;99.67
38852;BME280;24605;50.092;9.182;2022-07-01T09:51:32;98208.31;;;15.41;100.00
38852;BME280;24605;50.092;9.182;2022-07-01T09:53:58;98213.75;;;15.32;100.00
38852;BME280;24605;50.092;9.182;2022-07-01T09:56:25;98206.66;;;15.33;100.00
38852;BME280;24605;50.092;9.182;2022-07-01T09:58:51;98209.16;;;15.48;100.00
38852;BME280;24605;50.092;9.182;2022-07-01T10:01:18;98207.69;;;15.39;100.00
38852;BME280;24605;50.092;9.182;2022-07-01T10:03:45;98209.28;;;15.33;100.00
38852;BME280;24605;50.092;9.182;2022-07-01T10:06:24;98207.81;;;15.30;100.00
38852;BME280;24605;50.092;9.182;2022-07-01T10:09:07;98206.72;;;15.46;100.00
38852;BME280;24605;50.092;9.182;2022-07-01T10:11:52;98202.69;;;15.50;100.00
38852;BME280;24605;50.092;9.182;2022-07-01T10:14:23;98210.38;;;15.45;100.00
38852;BME280;24605;50.092;9.182;2022-07-01T10:16:49;98212.09;;;15.25;100.00
38852;BME280;24605;50.092;9.182;2022-07-01T10:19:27;98214.09;;;15.23;100.00
38852;BME280;24605;50.092;9.182;2022-07-01T10:21:56;98211.03;;;15.26;100.00
38852;BME280;24605;50.092;9.182;2022-07-01T10:24:26;98214.94;;;15.30;100.00
38852;BME280;24605;50.092;9.182;2022-07-01T10:26:58;98227.66;;;15.19;100.00
38852;BME280;24605;50.092;9.182;2022-07-01T10:29:32;98237.72;;;15.02;100.00
38852;BME280;24605;50.092;9.182;2022-07-01T10:32:02;98235.06;;;15.31;100.00
38852;BME280;24605;50.092;9.182;2022-07-01T10:34:37;98206.59;;;14.98;100.00
38852;BME280;24605;50.092;9.182;2022-07-01T10:37:05;98249.06;;;15.25;100.00
38852;BME280;24605;50.092;9.182;2022-07-01T10:39:56;98256.38;;;15.86;100.00
38852;BME280;24605;50.092;9.182;2022-07-01T10:42:31;98260.13;;;16.05;99.18
38852;BME280;24605;50.092;9.182;2022-07-01T10:45:08;98253.75;;;16.41;92.97
38852;BME280;24605;50.092;9.182;2022-07-01T10:47:35;98244.47;;;16.66;92.04
38852;BME280;24605;50.092;9.182;2022-07-01T10:50:08;98245.09;;;16.81;90.68
38852;BME280;24605;50.092;9.182;2022-07-01T10:52:35;98250.00;;;16.84;91.69
38852;BME280;24605;50.092;9.182;2022-07-01T10:55:04;98259.81;;;17.04;92.43
38852;BME280;24605;50.092;9.182;2022-07-01T10:57:36;98254.09;;;17.41;91.55
38852;BME280;24605;50.092;9.182;2022-07-01T11:00:26;98232.31;;;17.25;90.64
38852;BME280;24605;50.092;9.182;2022-07-01T11:03:07;98232.09;;;17.06;90.55
38852;BME280;24605;50.092;9.182;2022-07-01T11:05:35;98236.94;;;16.89;90.63
38852;BME280;24605;50.092;9.182;2022-07-01T11:08:04;98242.50;;;17.08;90.49
38852;BME280;24605;50.092;9.182;2022-07-01T11:10:33;98247.56;;;17.50;88.61
38852;BME280;24605;50.092;9.182;2022-07-01T11:13:00;98252.06;;;17.29;88.45
38852;BME280;24605;50.092;9.182;2022-07-01T11:15:28;98246.38;;;17.26;87.52
38852;BME280;24605;50.092;9.182;2022-07-01T11:17:55;98265.88;;;17.78;89.26
38852;BME280;24605;50.092;9.182;2022-07-01T11:20:23;98261.22;;;17.60;83.26
38852;BME280;24605;50.092;9.182;2022-07-01T11:22:50;98264.69;;;17.67;84.95
38852;BME280;24605;50.092;9.182;2022-07-01T11:25:18;98258.34;;;17.55;86.14
38852;BME280;24605;50.092;9.182;2022-07-01T11:27:47;98257.34;;;17.69;88.89
38852;BME280;24605;50.092;9.182;2022-07-01T11:30:15;98268.78;;;17.50;86.95
38852;BME280;24605;50.092;9.182;2022-07-01T11:32:44;98265.94;;;17.31;85.23
38852;BME280;24605;50.092;9.182;2022-07-01T11:35:14;98271.03;;;17.39;84.76
38852;BME280;24605;50.092;9.182;2022-07-01T11:38:10;98268.28;;;17.86;86.02
38852;BME280;24605;50.092;9.182;2022-07-01T11:40:55;98271.03;;;17.46;82.15
38852;BME280;24605;50.092;9.182;2022-07-01T11:43:24;98265.53;;;17.21;86.29
38852;BME280;24605;50.092;9.182;2022-07-01T11:45:52;98258.78;;;17.52;88.87
38852;BME280;24605;50.092;9.182;2022-07-01T11:48:33;98267.94;;;18.42;86.31
38852;BME280;24605;50.092;9.182;2022-07-01T11:51:01;98251.94;;;18.03;81.68
38852;BME280;24605;50.092;9.182;2022-07-01T11:53:31;98236.25;;;18.01;79.14
38852;BME280;24605;50.092;9.182;2022-07-01T11:55:58;98247.28;;;18.44;78.46
38852;BME280;24605;50.092;9.182;2022-07-01T11:58:40;98248.16;;;18.70;77.14
38852;BME280;24605;50.092;9.182;2022-07-01T12:01:06;98257.56;;;18.72;71.83
38852;BME280;24605;50.092;9.182;2022-07-01T12:03:33;98261.00;;;18.41;74.82
38852;BME280;24605;50.092;9.182;2022-07-01T12:06:01;98258.72;;;18.51;72.63
38852;BME280;24605;50.092;9.182;2022-07-01T12:08:29;98257.88;;;18.05;75.55
38852;BME280;24605;50.092;9.182;2022-07-01T12:10:55;98257.38;;;18.28;76.40
38852;BME280;24605;50.092;9.182;2022-07-01T12:13:27;98237.66;;;18.50;73.54
38852;BME280;24605;50.092;9.182;2022-07-01T12:15:54;98243.38;;;18.85;71.04
38852;BME280;24605;50.092;9.182;2022-07-01T12:18:20;98241.66;;;19.67;67.10
38852;BME280;24605;50.092;9.182;2022-07-01T12:20:49;98241.75;;;19.79;61.89
38852;BME280;24605;50.092;9.182;2022-07-01T12:23:16;98234.19;;;20.01;64.89
38852;BME280;24605;50.092;9.182;2022-07-01T12:25:47;98235.94;;;21.10;61.90
38852;BME280;24605;50.092;9.182;2022-07-01T12:28:38;98247.72;;;20.60;61.00
38852;BME280;24605;50.092;9.182;2022-07-01T12:31:07;98230.34;;;20.27;64.34
38852;BME280;24605;50.092;9.182;2022-07-01T12:33:35;98242.91;;;20.39;64.42
38852;BME280;24605;50.092;9.182;2022-07-01T12:36:03;98245.31;;;20.10;65.85
38852;BME280;24605;50.092;9.182;2022-07-01T12:38:30;98242.44;;;19.74;63.10
38852;BME280;24605;50.092;9.182;2022-07-01T12:40:57;98238.09;;;19.10;63.18
38852;BME280;24605;50.092;9.182;2022-07-01T12:43:25;98235.41;;;18.85;63.51
38852;BME280;24605;50.092;9.182;2022-07-01T12:45:56;98243.94;;;18.94;63.09
38852;BME280;24605;50.092;9.182;2022-07-01T12:48:22;98248.44;;;19.19;62.87
38852;BME280;24605;50.092;9.182;2022-07-01T12:50:52;98250.78;;;19.34;62.90
38852;BME280;24605;50.092;9.182;2022-07-01T12:53:20;98252.19;;;20.36;57.83
38852;BME280;24605;50.092;9.182;2022-07-01T12:55:48;98250.88;;;21.00;59.32
38852;BME280;24605;50.092;9.182;2022-07-01T12:58:17;98243.84;;;21.53;58.34